createdAt,value
2017-08-16T00:00:19.569Z,3.80
2017-08-16T00:01:19.623Z,4.10
2017-08-16T00:02:19.556Z,4.10
2017-08-16T00:03:19.639Z,4.10
2017-08-16T00:04:19.642Z,4.10
2017-08-16T00:05:19.615Z,4.10
2017-08-16T00:06:19.612Z,4.10
2017-08-16T00:07:19.583Z,4.10
2017-08-16T00:08:19.625Z,4.10
2017-08-16T00:09:19.558Z,4.10
2017-08-16T00:10:19.611Z,4.10
2017-08-16T00:11:19.652Z,3.90
2017-08-16T00:12:19.554Z,3.90
2017-08-16T00:13:19.654Z,3.90
2017-08-16T00:14:19.592Z,3.90
2017-08-16T00:15:19.634Z,3.90
2017-08-16T00:16:19.560Z,3.90
2017-08-16T00:17:19.620Z,3.90
2017-08-16T00:18:19.591Z,3.90
2017-08-16T00:19:19.656Z,3.90
2017-08-16T00:20:19.559Z,3.90
2017-08-16T00:21:19.598Z,4.80
2017-08-16T00:22:19.659Z,4.80
2017-08-16T00:23:19.659Z,4.80
2017-08-16T00:24:19.601Z,4.80
2017-08-16T00:25:19.635Z,4.80
2017-08-16T00:26:19.565Z,4.80
2017-08-16T00:27:19.603Z,4.80
2017-08-16T00:28:19.634Z,4.80
2017-08-16T00:29:19.669Z,4.80
2017-08-16T00:30:19.636Z,4.80
2017-08-16T00:31:19.603Z,4.40
2017-08-16T00:32:19.658Z,4.40
2017-08-16T00:33:19.665Z,4.40
2017-08-16T00:34:19.656Z,4.40
2017-08-16T00:35:19.657Z,4.40
2017-08-16T00:36:19.631Z,4.40
2017-08-16T00:37:19.646Z,4.40
2017-08-16T00:38:19.662Z,4.40
2017-08-16T00:39:19.607Z,4.40
2017-08-16T00:40:19.667Z,4.40
2017-08-16T00:41:19.597Z,4.80
2017-08-16T00:42:19.594Z,4.80
2017-08-16T00:43:19.573Z,4.80
2017-08-16T00:44:19.569Z,4.80
2017-08-16T00:45:19.573Z,4.80
2017-08-16T00:46:19.627Z,4.80
2017-08-16T00:47:19.596Z,4.80
2017-08-16T00:48:19.571Z,4.80
2017-08-16T00:49:19.599Z,4.80
2017-08-16T00:50:19.600Z,4.80
2017-08-16T00:51:19.620Z,4.20
2017-08-16T00:52:19.653Z,4.20
2017-08-16T00:53:19.589Z,4.20
2017-08-16T00:54:19.641Z,4.20
2017-08-16T00:55:19.647Z,4.20
2017-08-16T00:56:19.620Z,4.20
2017-08-16T00:57:19.651Z,4.20
2017-08-16T00:58:19.639Z,4.20
2017-08-16T00:59:19.622Z,4.20
2017-08-16T01:00:19.676Z,4.20
2017-08-16T01:01:19.554Z,4.90
2017-08-16T01:02:19.595Z,4.90
2017-08-16T01:03:19.603Z,4.90
2017-08-16T01:04:19.608Z,4.90
2017-08-16T01:05:19.609Z,4.90
2017-08-16T01:06:19.615Z,4.90
2017-08-16T01:07:19.615Z,4.90
2017-08-16T01:08:19.610Z,4.90
2017-08-16T01:09:19.596Z,4.90
2017-08-16T01:10:19.611Z,4.90
2017-08-16T01:11:19.591Z,4.90
2017-08-16T01:12:19.689Z,4.90
2017-08-16T01:13:19.626Z,4.90
2017-08-16T01:14:19.687Z,4.90
2017-08-16T01:15:19.633Z,4.90
2017-08-16T01:16:19.689Z,4.90
2017-08-16T01:17:19.631Z,4.90
2017-08-16T01:18:19.595Z,4.90
2017-08-16T01:19:19.625Z,4.90
2017-08-16T01:20:19.595Z,4.90
2017-08-16T01:21:19.604Z,4.90
2017-08-16T01:22:19.599Z,5.40
2017-08-16T01:23:19.603Z,5.40
2017-08-16T01:24:19.599Z,5.40
2017-08-16T01:25:19.657Z,5.40
2017-08-16T01:26:19.669Z,5.40
2017-08-16T01:27:19.628Z,5.40
2017-08-16T01:28:19.626Z,5.40
2017-08-16T01:29:19.602Z,5.40
2017-08-16T01:30:19.633Z,5.40
2017-08-16T01:31:19.611Z,5.40
2017-08-16T01:32:19.615Z,6.00
2017-08-16T01:33:19.629Z,6.00
2017-08-16T01:34:19.600Z,6.00
2017-08-16T01:35:19.603Z,6.00
2017-08-16T01:36:19.585Z,6.00
2017-08-16T01:37:19.587Z,6.00
2017-08-16T01:38:19.629Z,6.00
2017-08-16T01:39:19.631Z,6.00
2017-08-16T01:40:19.613Z,6.00
2017-08-16T01:41:19.611Z,6.00
2017-08-16T01:42:19.752Z,6.20
2017-08-16T01:43:19.650Z,6.20
2017-08-16T01:44:19.708Z,6.20
2017-08-16T01:45:19.613Z,6.20
2017-08-16T01:46:19.693Z,6.20
2017-08-16T01:47:19.626Z,6.20
2017-08-16T01:48:19.647Z,6.20
2017-08-16T01:49:19.655Z,6.20
2017-08-16T01:50:19.660Z,6.20
2017-08-16T01:51:19.687Z,6.20
2017-08-16T01:52:19.674Z,6.20
2017-08-16T01:53:19.639Z,6.20
2017-08-16T01:54:19.614Z,6.20
2017-08-16T01:55:19.617Z,6.20
2017-08-16T01:56:19.680Z,6.20
2017-08-16T01:57:19.616Z,6.20
2017-08-16T01:58:19.616Z,6.20
2017-08-16T01:59:19.648Z,6.20
2017-08-16T02:00:19.645Z,6.20
2017-08-16T02:01:19.619Z,6.20
2017-08-16T02:02:19.619Z,6.80
2017-08-16T02:03:19.621Z,6.80
2017-08-16T02:04:19.652Z,6.80
2017-08-16T02:05:19.648Z,6.80
2017-08-16T02:06:19.650Z,6.80
2017-08-16T02:07:19.651Z,6.80
2017-08-16T02:08:19.686Z,6.80
2017-08-16T02:09:19.728Z,6.80
2017-08-16T02:10:19.625Z,6.80
2017-08-16T02:11:19.675Z,6.80
2017-08-16T02:12:19.604Z,8.00
2017-08-16T02:13:19.654Z,8.00
2017-08-16T02:14:19.655Z,8.00
2017-08-16T02:15:19.650Z,8.00
2017-08-16T02:16:19.648Z,8.00
2017-08-16T02:17:19.609Z,8.00
2017-08-16T02:18:19.653Z,8.00
2017-08-16T02:19:19.582Z,8.00
2017-08-16T02:20:19.652Z,8.00
2017-08-16T02:21:19.657Z,8.00
2017-08-16T02:22:19.641Z,6.60
2017-08-16T02:23:19.669Z,6.60
2017-08-16T02:24:19.671Z,6.60
2017-08-16T02:25:19.671Z,6.60
2017-08-16T02:26:19.636Z,6.60
2017-08-16T02:27:19.638Z,6.60
2017-08-16T02:28:19.643Z,6.60
2017-08-16T02:29:19.705Z,6.60
2017-08-16T02:30:19.730Z,6.60
2017-08-16T02:31:19.695Z,6.60
2017-08-16T02:32:19.677Z,7.99
2017-08-16T02:33:19.698Z,7.99
2017-08-16T02:34:19.647Z,7.99
2017-08-16T02:35:19.649Z,7.99
2017-08-16T02:36:19.747Z,7.99
2017-08-16T02:37:19.706Z,7.99
2017-08-16T02:38:19.741Z,7.99
2017-08-16T02:39:19.680Z,7.99
2017-08-16T02:40:19.651Z,7.99
2017-08-16T02:41:19.738Z,7.99
2017-08-16T02:42:19.657Z,7.90
2017-08-16T02:43:19.747Z,7.90
2017-08-16T02:44:19.712Z,7.90
2017-08-16T02:45:19.672Z,7.90
2017-08-16T02:46:19.712Z,7.90
2017-08-16T02:47:19.719Z,7.90
2017-08-16T02:48:19.707Z,7.90
2017-08-16T02:49:19.715Z,7.90
2017-08-16T02:50:19.686Z,7.90
2017-08-16T02:51:19.721Z,7.90
2017-08-16T02:52:19.678Z,7.90
2017-08-16T02:53:19.629Z,7.90
2017-08-16T02:54:19.660Z,7.90
2017-08-16T02:55:19.678Z,7.90
2017-08-16T02:56:19.636Z,7.90
2017-08-16T02:57:19.697Z,7.90
2017-08-16T02:58:19.653Z,7.90
2017-08-16T02:59:19.727Z,7.90
2017-08-16T03:00:19.668Z,7.90
2017-08-16T03:01:19.682Z,7.90
2017-08-16T03:02:19.748Z,8.50
2017-08-16T03:03:19.846Z,8.50
2017-08-16T03:04:19.754Z,8.50
2017-08-16T03:05:19.749Z,8.50
2017-08-16T03:06:19.732Z,8.50
2017-08-16T03:07:19.763Z,8.50
2017-08-16T03:08:19.727Z,8.50
2017-08-16T03:09:19.731Z,8.50
2017-08-16T03:10:19.663Z,8.50
2017-08-16T03:11:19.700Z,8.50
2017-08-16T03:12:19.703Z,9.50
2017-08-16T03:13:19.754Z,9.50
2017-08-16T03:14:19.753Z,9.50
2017-08-16T03:15:19.738Z,9.50
2017-08-16T03:16:19.664Z,9.50
2017-08-16T03:17:19.731Z,9.50
2017-08-16T03:18:19.688Z,9.50
2017-08-16T03:19:19.720Z,9.50
2017-08-16T03:20:19.697Z,9.50
2017-08-16T03:21:19.722Z,9.50
2017-08-16T03:22:19.698Z,11.30
2017-08-16T03:23:19.653Z,11.30
2017-08-16T03:24:19.688Z,11.30
2017-08-16T03:25:19.649Z,11.30
2017-08-16T03:26:19.656Z,11.30
2017-08-16T03:27:19.652Z,11.30
2017-08-16T03:28:19.736Z,11.30
2017-08-16T03:29:19.696Z,11.30
2017-08-16T03:30:19.688Z,11.30
2017-08-16T03:31:19.685Z,11.30
2017-08-16T03:32:19.643Z,11.50
2017-08-16T03:33:19.643Z,11.50
2017-08-16T03:34:19.697Z,11.50
2017-08-16T03:35:19.692Z,11.50
2017-08-16T03:36:19.658Z,11.50
2017-08-16T03:37:19.683Z,11.50
2017-08-16T03:38:19.674Z,11.50
2017-08-16T03:39:19.706Z,11.50
2017-08-16T03:40:19.705Z,11.50
2017-08-16T03:41:19.675Z,11.50
2017-08-16T03:42:19.736Z,11.20
2017-08-16T03:43:19.692Z,11.20
2017-08-16T03:44:19.742Z,11.20
2017-08-16T03:45:19.693Z,11.20
2017-08-16T03:46:19.691Z,11.20
2017-08-16T03:47:19.713Z,11.20
2017-08-16T03:48:19.718Z,11.20
2017-08-16T03:49:19.718Z,11.20
2017-08-16T03:50:19.743Z,11.20
2017-08-16T03:51:19.743Z,11.20
2017-08-16T03:52:19.725Z,10.40
2017-08-16T03:53:19.693Z,10.40
2017-08-16T03:54:19.716Z,10.40
2017-08-16T03:55:19.785Z,10.40
2017-08-16T03:56:19.761Z,10.40
2017-08-16T03:57:19.751Z,10.40
2017-08-16T03:58:19.795Z,10.40
2017-08-16T03:59:19.789Z,10.40
2017-08-16T04:00:19.719Z,10.40
2017-08-16T04:01:19.727Z,10.40
2017-08-16T04:02:19.644Z,13.99
2017-08-16T04:03:19.716Z,13.99
2017-08-16T04:04:19.759Z,13.99
2017-08-16T04:05:19.695Z,13.99
2017-08-16T04:06:19.717Z,13.99
2017-08-16T04:07:19.696Z,13.99
2017-08-16T04:08:19.715Z,13.99
2017-08-16T04:09:19.722Z,13.99
2017-08-16T04:10:19.709Z,13.99
2017-08-16T04:11:19.707Z,13.99
2017-08-16T04:12:19.753Z,13.80
2017-08-16T04:13:19.756Z,13.80
2017-08-16T04:14:19.809Z,13.80
2017-08-16T04:15:19.772Z,13.80
2017-08-16T04:16:19.742Z,13.80
2017-08-16T04:17:19.796Z,13.80
2017-08-16T04:18:19.756Z,13.80
2017-08-16T04:19:19.756Z,13.80
2017-08-16T04:20:19.705Z,13.80
2017-08-16T04:21:19.804Z,13.80
2017-08-16T04:22:19.699Z,13.10
2017-08-16T04:23:19.729Z,13.10
2017-08-16T04:24:19.703Z,13.10
2017-08-16T04:25:19.769Z,13.10
2017-08-16T04:26:19.703Z,13.10
2017-08-16T04:27:19.704Z,13.10
2017-08-16T04:28:19.731Z,13.10
2017-08-16T04:29:19.764Z,13.10
2017-08-16T04:30:19.771Z,13.10
2017-08-16T04:31:19.704Z,13.10
2017-08-16T04:32:19.721Z,14.00
2017-08-16T04:33:19.735Z,14.00
2017-08-16T04:34:19.758Z,14.00
2017-08-16T04:35:19.737Z,14.00
2017-08-16T04:36:19.711Z,14.00
2017-08-16T04:37:19.734Z,14.00
2017-08-16T04:38:19.732Z,14.00
2017-08-16T04:39:19.779Z,14.00
2017-08-16T04:40:19.730Z,14.00
2017-08-16T04:41:19.738Z,14.00
2017-08-16T04:42:19.803Z,12.70
2017-08-16T04:43:19.772Z,12.70
2017-08-16T04:44:19.772Z,12.70
2017-08-16T04:45:19.775Z,12.70
2017-08-16T04:46:19.712Z,12.70
2017-08-16T04:47:19.712Z,12.70
2017-08-16T04:48:19.745Z,12.70
2017-08-16T04:49:19.717Z,12.70
2017-08-16T04:50:19.716Z,12.70
2017-08-16T04:51:19.746Z,12.70
2017-08-16T04:52:19.774Z,14.90
2017-08-16T04:53:19.756Z,14.90
2017-08-16T04:54:19.792Z,14.90
2017-08-16T04:55:19.793Z,14.90
2017-08-16T04:56:19.792Z,14.90
2017-08-16T04:57:19.730Z,14.90
2017-08-16T04:58:19.791Z,14.90
2017-08-16T04:59:19.822Z,14.90
2017-08-16T05:00:19.804Z,14.90
2017-08-16T05:01:19.802Z,14.90
2017-08-16T05:02:19.774Z,16.00
2017-08-16T05:03:19.760Z,16.00
2017-08-16T05:04:19.729Z,16.00
2017-08-16T05:05:19.726Z,16.00
2017-08-16T05:06:19.758Z,16.00
2017-08-16T05:07:19.731Z,16.00
2017-08-16T05:08:19.728Z,16.00
2017-08-16T05:09:19.709Z,16.00
2017-08-16T05:10:19.714Z,16.00
2017-08-16T05:11:19.702Z,16.00
2017-08-16T05:12:19.726Z,16.30
2017-08-16T05:13:19.728Z,16.30
2017-08-16T05:14:19.756Z,16.30
2017-08-16T05:15:19.754Z,16.30
2017-08-16T05:16:19.793Z,16.30
2017-08-16T05:17:19.729Z,16.30
2017-08-16T05:18:19.821Z,16.30
2017-08-16T05:19:19.757Z,16.30
2017-08-16T05:20:19.759Z,16.30
2017-08-16T05:21:19.729Z,16.30
2017-08-16T05:22:19.792Z,15.90
2017-08-16T05:23:19.767Z,15.90
2017-08-16T05:24:19.794Z,15.90
2017-08-16T05:25:19.840Z,15.90
2017-08-16T05:26:19.834Z,15.90
2017-08-16T05:27:19.740Z,15.90
2017-08-16T05:28:19.781Z,15.90
2017-08-16T05:29:19.799Z,15.90
2017-08-16T05:30:19.773Z,15.90
2017-08-16T05:31:19.767Z,15.90
2017-08-16T05:32:19.764Z,16.70
2017-08-16T05:33:19.742Z,16.70
2017-08-16T05:34:19.801Z,16.70
2017-08-16T05:35:19.796Z,16.70
2017-08-16T05:36:19.768Z,16.70
2017-08-16T05:37:19.742Z,16.70
2017-08-16T05:38:19.743Z,16.70
2017-08-16T05:39:19.770Z,16.70
2017-08-16T05:40:19.764Z,16.70
2017-08-16T05:41:19.766Z,16.70
2017-08-16T05:42:19.748Z,14.90
2017-08-16T05:43:19.744Z,14.90
2017-08-16T05:44:19.746Z,14.90
2017-08-16T05:45:19.819Z,14.90
2017-08-16T05:46:19.783Z,14.90
2017-08-16T05:47:19.778Z,14.90
2017-08-16T05:48:19.729Z,14.90
2017-08-16T05:49:19.818Z,14.90
2017-08-16T05:50:19.750Z,14.90
2017-08-16T05:51:19.729Z,14.90
2017-08-16T05:52:19.727Z,17.90
2017-08-16T05:53:19.779Z,17.90
2017-08-16T05:54:19.752Z,17.90
2017-08-16T05:55:19.731Z,17.90
2017-08-16T05:56:19.735Z,17.90
2017-08-16T05:57:19.734Z,17.90
2017-08-16T05:58:19.738Z,17.90
2017-08-16T05:59:19.754Z,17.90
2017-08-16T06:00:19.829Z,17.90
2017-08-16T06:01:19.773Z,17.90
2017-08-16T06:02:19.760Z,17.60
2017-08-16T06:03:19.758Z,17.60
2017-08-16T06:04:19.745Z,17.60
2017-08-16T06:05:19.707Z,17.60
2017-08-16T06:06:19.758Z,17.60
2017-08-16T06:07:19.750Z,17.60
2017-08-16T06:08:19.760Z,17.60
2017-08-16T06:10:19.769Z,17.60
2017-08-16T06:11:19.765Z,17.60
2017-08-16T06:12:19.825Z,18.40
2017-08-16T06:13:19.861Z,18.40
2017-08-16T06:14:19.791Z,18.40
2017-08-16T06:15:19.801Z,18.40
2017-08-16T06:16:19.866Z,18.40
2017-08-16T06:17:19.769Z,18.40
2017-08-16T06:18:19.862Z,18.40
2017-08-16T06:19:19.783Z,18.40
2017-08-16T06:20:19.842Z,18.40
2017-08-16T06:21:19.778Z,18.40
2017-08-16T06:22:19.811Z,18.30
2017-08-16T06:23:19.849Z,18.30
2017-08-16T06:24:19.803Z,18.30
2017-08-16T06:25:19.855Z,18.30
2017-08-16T06:26:19.870Z,18.30
2017-08-16T06:27:19.786Z,18.30
2017-08-16T06:28:19.831Z,18.30
2017-08-16T06:29:19.847Z,18.30
2017-08-16T06:30:19.878Z,18.30
2017-08-16T06:31:19.852Z,18.30
2017-08-16T06:32:19.838Z,18.90
2017-08-16T06:33:19.773Z,18.90
2017-08-16T06:34:19.837Z,18.90
2017-08-16T06:35:19.778Z,18.90
2017-08-16T06:36:19.846Z,18.90
2017-08-16T06:37:19.772Z,18.90
2017-08-16T06:38:19.806Z,18.90
2017-08-16T06:39:19.780Z,18.90
2017-08-16T06:40:19.778Z,18.90
2017-08-16T06:41:19.842Z,18.90
2017-08-16T06:42:19.787Z,22.20
2017-08-16T06:43:19.838Z,22.20
2017-08-16T06:44:19.821Z,22.20
2017-08-16T06:45:19.810Z,22.20
2017-08-16T06:46:19.847Z,22.20
2017-08-16T06:47:19.800Z,22.20
2017-08-16T06:48:19.884Z,22.20
2017-08-16T06:49:19.887Z,22.20
2017-08-16T06:50:19.845Z,22.20
2017-08-16T06:51:19.823Z,22.20
2017-08-16T06:52:19.849Z,22.20
2017-08-16T06:53:19.798Z,21.70
2017-08-16T06:54:19.817Z,21.70
2017-08-16T06:55:19.880Z,21.70
2017-08-16T06:56:19.795Z,21.70
2017-08-16T06:57:19.857Z,21.70
2017-08-16T06:58:19.791Z,21.70
2017-08-16T06:59:19.832Z,21.70
2017-08-16T07:00:19.867Z,21.70
2017-08-16T07:01:19.854Z,21.70
2017-08-16T07:02:19.796Z,21.70
2017-08-16T07:03:19.827Z,21.30
2017-08-16T07:04:19.830Z,21.30
2017-08-16T07:05:19.834Z,21.30
2017-08-16T07:06:19.795Z,21.30
2017-08-16T07:07:19.888Z,21.30
2017-08-16T07:08:19.859Z,21.30
2017-08-16T07:09:19.798Z,21.30
2017-08-16T07:10:19.832Z,21.30
2017-08-16T07:11:19.859Z,21.30
2017-08-16T07:12:19.862Z,21.30
2017-08-16T07:13:19.825Z,21.80
2017-08-16T07:14:19.831Z,21.80
2017-08-16T07:15:19.803Z,21.80
2017-08-16T07:16:19.808Z,21.80
2017-08-16T07:17:19.839Z,21.80
2017-08-16T07:18:19.898Z,21.80
2017-08-16T07:19:19.840Z,21.80
2017-08-16T07:20:19.884Z,21.80
2017-08-16T07:21:19.811Z,21.80
2017-08-16T07:22:19.908Z,21.80
2017-08-16T07:23:19.848Z,18.90
2017-08-16T07:24:19.890Z,18.90
2017-08-16T07:25:19.846Z,18.90
2017-08-16T07:26:19.941Z,18.90
2017-08-16T07:27:19.900Z,18.90
2017-08-16T07:28:19.838Z,18.90
2017-08-16T07:29:19.906Z,18.90
2017-08-16T07:30:19.817Z,18.90
2017-08-16T07:31:19.875Z,18.90
2017-08-16T07:32:19.817Z,18.90
2017-08-16T07:33:19.789Z,19.80
2017-08-16T07:34:19.835Z,19.80
2017-08-16T07:35:19.817Z,19.80
2017-08-16T07:36:19.793Z,19.80
2017-08-16T07:37:19.836Z,19.80
2017-08-16T07:38:19.841Z,19.80
2017-08-16T07:39:19.818Z,19.80
2017-08-16T07:40:19.796Z,19.80
2017-08-16T07:41:19.838Z,19.80
2017-08-16T07:42:19.826Z,19.80
2017-08-16T07:43:19.892Z,18.50
2017-08-16T07:44:19.821Z,18.50
2017-08-16T07:45:19.923Z,18.50
2017-08-16T07:46:19.960Z,18.50
2017-08-16T07:47:19.850Z,18.50
2017-08-16T07:48:19.856Z,18.50
2017-08-16T07:49:19.881Z,18.50
2017-08-16T07:50:19.893Z,18.50
2017-08-16T07:51:19.916Z,18.50
2017-08-16T07:52:19.897Z,18.50
2017-08-16T07:53:19.821Z,15.80
2017-08-16T07:54:19.850Z,15.80
2017-08-16T07:55:19.821Z,15.80
2017-08-16T07:56:19.860Z,15.80
2017-08-16T07:57:19.821Z,15.80
2017-08-16T07:58:19.823Z,15.80
2017-08-16T07:59:19.886Z,15.80
2017-08-16T08:00:19.826Z,15.80
2017-08-16T08:01:19.850Z,15.80
2017-08-16T08:02:19.852Z,15.80
2017-08-16T08:03:19.869Z,16.10
2017-08-16T08:04:19.860Z,16.10
2017-08-16T08:05:19.832Z,16.10
2017-08-16T08:06:19.887Z,16.10
2017-08-16T08:07:19.872Z,16.10
2017-08-16T08:08:19.929Z,16.10
2017-08-16T08:09:19.835Z,16.10
2017-08-16T08:10:19.926Z,16.10
2017-08-16T08:11:19.889Z,16.10
2017-08-16T08:12:19.873Z,16.10
2017-08-16T08:13:19.895Z,17.10
2017-08-16T08:14:19.935Z,17.10
2017-08-16T08:15:19.927Z,17.10
2017-08-16T08:16:19.837Z,17.10
2017-08-16T08:17:19.902Z,17.10
2017-08-16T08:18:19.930Z,17.10
2017-08-16T08:19:19.903Z,17.10
2017-08-16T08:20:19.877Z,17.10
2017-08-16T08:21:19.938Z,17.10
2017-08-16T08:22:19.885Z,17.10
2017-08-16T08:23:19.844Z,16.40
2017-08-16T08:24:19.879Z,16.40
2017-08-16T08:25:19.854Z,16.40
2017-08-16T08:26:19.913Z,16.40
2017-08-16T08:27:19.845Z,16.40
2017-08-16T08:28:19.919Z,16.40
2017-08-16T08:29:19.899Z,16.40
2017-08-16T08:30:19.874Z,16.40
2017-08-16T08:31:19.914Z,16.40
2017-08-16T08:32:19.925Z,16.40
2017-08-16T08:33:19.945Z,15.60
2017-08-16T08:34:19.953Z,15.60
2017-08-16T08:35:19.890Z,15.60
2017-08-16T08:36:19.916Z,15.60
2017-08-16T08:37:19.906Z,15.60
2017-08-16T08:38:19.859Z,15.60
2017-08-16T08:39:19.891Z,15.60
2017-08-16T08:40:19.884Z,15.60
2017-08-16T08:41:19.910Z,15.60
2017-08-16T08:42:19.863Z,15.60
2017-08-16T08:43:19.853Z,16.20
2017-08-16T08:44:19.837Z,16.20
2017-08-16T08:45:19.871Z,16.20
2017-08-16T08:46:19.908Z,16.20
2017-08-16T08:47:19.905Z,16.20
2017-08-16T08:48:19.839Z,16.20
2017-08-16T08:49:19.872Z,16.20
2017-08-16T08:50:19.838Z,16.20
2017-08-16T08:51:19.840Z,16.20
2017-08-16T08:52:19.907Z,16.20
2017-08-16T08:53:19.897Z,15.20
2017-08-16T08:54:19.962Z,15.20
2017-08-16T08:55:19.868Z,15.20
2017-08-16T08:56:19.862Z,15.20
2017-08-16T08:57:19.884Z,15.20
2017-08-16T08:58:19.866Z,15.20
2017-08-16T08:59:19.920Z,15.20
2017-08-16T09:00:19.887Z,15.20
2017-08-16T09:01:19.874Z,15.20
2017-08-16T09:02:19.937Z,15.20
2017-08-16T09:03:19.877Z,13.00
2017-08-16T09:04:19.852Z,13.00
2017-08-16T09:05:19.878Z,13.00
2017-08-16T09:06:19.883Z,13.00
2017-08-16T09:07:19.863Z,13.00
2017-08-16T09:08:19.866Z,13.00
2017-08-16T09:09:19.891Z,13.00
2017-08-16T09:10:19.850Z,13.00
2017-08-16T09:11:19.956Z,13.00
2017-08-16T09:12:19.897Z,13.00
2017-08-16T09:13:19.961Z,11.60
2017-08-16T09:14:19.942Z,11.60
2017-08-16T09:15:19.963Z,11.60
2017-08-16T09:16:19.882Z,11.60
2017-08-16T09:17:19.881Z,11.60
2017-08-16T09:18:19.881Z,11.60
2017-08-16T09:19:19.882Z,11.60
2017-08-16T09:20:19.905Z,11.60
2017-08-16T09:21:19.937Z,11.60
2017-08-16T09:22:19.917Z,11.60
2017-08-16T09:23:19.873Z,14.30
2017-08-16T09:24:19.895Z,14.30
2017-08-16T09:25:19.903Z,14.30
2017-08-16T09:26:19.875Z,14.30
2017-08-16T09:27:19.939Z,14.30
2017-08-16T09:28:19.939Z,14.30
2017-08-16T09:29:19.905Z,14.30
2017-08-16T09:30:19.943Z,14.30
2017-08-16T09:31:19.877Z,14.30
2017-08-16T09:32:19.879Z,14.30
2017-08-16T09:33:19.916Z,10.90
2017-08-16T09:34:19.913Z,10.90
2017-08-16T09:35:19.900Z,10.90
2017-08-16T09:36:19.934Z,10.90
2017-08-16T09:37:19.953Z,10.90
2017-08-16T09:38:19.906Z,10.90
2017-08-16T09:39:19.906Z,10.90
2017-08-16T09:40:19.885Z,10.90
2017-08-16T09:41:19.884Z,10.90
2017-08-16T09:42:19.870Z,10.90
2017-08-16T09:43:19.930Z,11.90
2017-08-16T09:44:19.963Z,11.90
2017-08-16T09:45:19.916Z,11.90
2017-08-16T09:46:19.959Z,11.90
2017-08-16T09:47:19.895Z,11.90
2017-08-16T09:48:19.928Z,11.90
2017-08-16T09:49:19.992Z,11.90
2017-08-16T09:50:19.986Z,11.90
2017-08-16T09:51:19.897Z,11.90
2017-08-16T09:52:19.968Z,11.90
2017-08-16T09:53:19.836Z,0.00
2017-08-16T09:54:19.840Z,0.00
2017-08-16T09:55:19.805Z,0.00
2017-08-16T09:56:19.841Z,0.00
2017-08-16T09:57:19.838Z,0.00
2017-08-16T09:58:19.794Z,0.00
2017-08-16T09:59:19.876Z,0.00
2017-08-16T10:00:19.844Z,0.00
2017-08-16T10:01:19.772Z,0.00
2017-08-16T10:02:19.878Z,0.00
2017-08-16T10:03:19.928Z,8.00
2017-08-16T10:04:19.923Z,8.00
2017-08-16T10:05:19.901Z,8.00
2017-08-16T10:06:19.910Z,8.00
2017-08-16T10:07:19.906Z,8.00
2017-08-16T10:08:19.873Z,8.00
2017-08-16T10:09:19.914Z,8.00
2017-08-16T10:10:19.931Z,8.00
2017-08-16T10:11:19.934Z,8.00
2017-08-16T10:12:19.873Z,8.00
2017-08-16T10:13:19.879Z,8.00
2017-08-16T10:14:19.920Z,8.00
2017-08-16T10:15:19.886Z,8.00
2017-08-16T10:16:19.976Z,8.00
2017-08-16T10:17:19.955Z,8.00
2017-08-16T10:18:19.907Z,8.00
2017-08-16T10:20:19.877Z,8.00
2017-08-16T10:21:19.916Z,8.00
2017-08-16T10:22:19.920Z,8.00
2017-08-16T10:23:19.941Z,5.90
2017-08-16T10:24:20.011Z,5.90
2017-08-16T10:25:20.004Z,5.90
2017-08-16T10:26:20.006Z,5.90
2017-08-16T10:27:19.915Z,5.90
2017-08-16T10:28:19.994Z,5.90
2017-08-16T10:29:19.989Z,5.90
2017-08-16T10:30:20.007Z,5.90
2017-08-16T10:31:19.941Z,5.90
2017-08-16T10:32:19.950Z,5.90
2017-08-16T10:33:20.012Z,7.90
2017-08-16T10:34:19.918Z,7.90
2017-08-16T10:35:19.941Z,7.90
2017-08-16T10:36:19.923Z,7.90
2017-08-16T10:37:19.956Z,7.90
2017-08-16T10:38:19.956Z,7.90
2017-08-16T10:39:19.959Z,7.90
2017-08-16T10:40:19.979Z,7.90
2017-08-16T10:41:19.959Z,7.90
2017-08-16T10:42:20.009Z,7.90
2017-08-16T10:43:19.921Z,5.40
2017-08-16T10:44:19.942Z,5.40
2017-08-16T10:45:19.933Z,5.40
2017-08-16T10:46:19.946Z,5.40
2017-08-16T10:47:19.925Z,5.40
2017-08-16T10:48:19.920Z,5.40
2017-08-16T10:49:19.876Z,5.40
2017-08-16T10:50:19.921Z,5.40
2017-08-16T10:51:19.884Z,5.40
2017-08-16T10:52:19.925Z,5.40
2017-08-16T10:53:19.984Z,4.80
2017-08-16T10:54:19.986Z,4.80
2017-08-16T10:55:19.924Z,4.80
2017-08-16T10:56:19.963Z,4.80
2017-08-16T10:57:19.995Z,4.80
2017-08-16T10:58:19.922Z,4.80
2017-08-16T10:59:19.956Z,4.80
2017-08-16T11:00:19.929Z,4.80
2017-08-16T11:01:19.961Z,4.80
2017-08-16T11:02:19.931Z,4.80
2017-08-16T11:03:19.968Z,5.10
2017-08-16T11:04:19.956Z,5.10
2017-08-16T11:05:19.932Z,5.10
2017-08-16T11:06:19.935Z,5.10
2017-08-16T11:07:19.964Z,5.10
2017-08-16T11:08:19.965Z,5.10
2017-08-16T11:09:19.958Z,5.10
2017-08-16T11:10:19.929Z,5.10
2017-08-16T11:11:19.924Z,5.10
2017-08-16T11:12:20.000Z,5.10
2017-08-16T11:13:19.964Z,5.00
2017-08-16T11:14:20.006Z,5.00
2017-08-16T11:15:19.933Z,5.00
2017-08-16T11:16:19.985Z,5.00
2017-08-16T11:17:19.996Z,5.00
2017-08-16T11:18:20.000Z,5.00
2017-08-16T11:19:19.970Z,5.00
2017-08-16T11:20:19.964Z,5.00
2017-08-16T11:21:19.965Z,5.00
2017-08-16T11:22:19.998Z,5.00
2017-08-16T11:23:20.006Z,4.40
2017-08-16T11:24:20.040Z,4.40
2017-08-16T11:25:19.972Z,4.40
2017-08-16T11:27:19.995Z,4.40
2017-08-16T11:28:19.957Z,4.40
2017-08-16T11:29:20.021Z,4.40
2017-08-16T11:30:19.972Z,4.40
2017-08-16T11:31:19.991Z,4.40
2017-08-16T11:32:20.026Z,4.40
2017-08-16T11:33:20.043Z,3.70
2017-08-16T11:34:20.025Z,3.70
2017-08-16T11:35:19.948Z,3.70
2017-08-16T11:36:19.984Z,3.70
2017-08-16T11:37:19.957Z,3.70
2017-08-16T11:38:20.003Z,3.70
2017-08-16T11:39:20.027Z,3.70
2017-08-16T11:40:20.029Z,3.70
2017-08-16T11:41:19.990Z,3.70
2017-08-16T11:42:20.048Z,3.70
2017-08-16T11:43:20.057Z,3.80
2017-08-16T11:44:19.985Z,3.80
2017-08-16T11:45:20.000Z,3.80
2017-08-16T11:46:20.024Z,3.80
2017-08-16T11:47:20.025Z,3.80
2017-08-16T11:48:19.968Z,3.80
2017-08-16T11:49:20.028Z,3.80
2017-08-16T11:50:20.000Z,3.80
2017-08-16T11:51:19.965Z,3.80
2017-08-16T11:52:19.997Z,3.80
2017-08-16T11:53:20.078Z,3.30
2017-08-16T11:54:19.999Z,3.30
2017-08-16T11:55:20.039Z,3.30
2017-08-16T11:56:20.003Z,3.30
2017-08-16T11:57:19.996Z,3.30
2017-08-16T11:58:19.994Z,3.30
2017-08-16T11:59:20.042Z,3.30
2017-08-16T12:00:19.968Z,3.30
2017-08-16T12:01:20.036Z,3.30
2017-08-16T12:02:19.979Z,3.30
2017-08-16T12:03:20.028Z,2.99
2017-08-16T12:04:20.004Z,2.99
2017-08-16T12:05:20.003Z,2.99
2017-08-16T12:06:19.993Z,2.99
2017-08-16T12:07:20.004Z,2.99
2017-08-16T12:08:20.028Z,2.99
2017-08-16T12:09:19.980Z,2.99
2017-08-16T12:10:19.997Z,2.99
2017-08-16T12:11:19.981Z,2.99
2017-08-16T12:12:20.015Z,2.99
2017-08-16T12:13:20.016Z,1.80
2017-08-16T12:14:20.013Z,1.80
2017-08-16T12:15:19.986Z,1.80
2017-08-16T12:16:19.983Z,1.80
2017-08-16T12:17:20.069Z,1.80
2017-08-16T12:18:20.076Z,1.80
2017-08-16T12:19:19.980Z,1.80
2017-08-16T12:20:19.980Z,1.80
2017-08-16T12:21:20.014Z,1.80
2017-08-16T12:22:19.984Z,1.80
2017-08-16T12:23:20.057Z,4.20
2017-08-16T12:24:20.008Z,4.20
2017-08-16T12:25:20.020Z,4.20
2017-08-16T12:26:19.991Z,4.20
2017-08-16T12:27:19.990Z,4.20
2017-08-16T12:28:20.022Z,4.20
2017-08-16T12:29:20.028Z,4.20
2017-08-16T12:30:20.022Z,4.20
2017-08-16T12:31:20.049Z,4.20
2017-08-16T12:32:20.083Z,4.20
2017-08-16T12:33:19.989Z,5.10
2017-08-16T12:34:19.997Z,5.10
2017-08-16T12:35:19.983Z,5.10
2017-08-16T12:36:19.997Z,5.10
2017-08-16T12:37:19.985Z,5.10
2017-08-16T12:38:19.955Z,5.10
2017-08-16T12:39:20.000Z,5.10
2017-08-16T12:40:19.906Z,5.10
2017-08-16T12:41:19.963Z,5.10
2017-08-16T12:42:19.986Z,5.10
2017-08-16T12:43:20.046Z,4.99
2017-08-16T12:44:19.980Z,4.99
2017-08-16T12:45:19.985Z,4.99
2017-08-16T12:46:19.984Z,4.99
2017-08-16T12:47:19.984Z,4.99
2017-08-16T12:48:19.983Z,4.99
2017-08-16T12:49:20.057Z,4.99
2017-08-16T12:50:20.033Z,4.99
2017-08-16T12:51:20.053Z,4.99
2017-08-16T12:52:20.025Z,4.99
2017-08-16T12:53:20.032Z,6.99
2017-08-16T12:54:20.030Z,6.99
2017-08-16T12:55:20.008Z,6.99
2017-08-16T12:56:20.076Z,6.99
2017-08-16T12:57:20.079Z,6.99
2017-08-16T12:58:20.025Z,6.99
2017-08-16T12:59:20.015Z,6.99
2017-08-16T13:00:20.003Z,6.99
2017-08-16T13:01:20.004Z,6.99
2017-08-16T13:02:20.097Z,6.99
2017-08-16T13:03:20.001Z,4.10
2017-08-16T13:04:20.099Z,4.10
2017-08-16T13:05:20.061Z,4.10
2017-08-16T13:06:20.041Z,4.10
2017-08-16T13:07:20.072Z,4.10
2017-08-16T13:08:20.065Z,4.10